National Weather Service Raw Text Product

Displaying AFOS PIL: TAFALO Received: 2017-08-13 05:20 UTC


178 
FTUS43 KDMX 130520
TAFALO
TAF
KALO 130520Z 1306/1406 VRB03KT P6SM SCT200
     FM131600 16006KT P6SM BKN100=